Portada
METAR-TAF:

METAR-TAF

Aeroports :

Caen, França

latitud: 49-11N, longitud: 000-27W, altitud: 78 m

Observació

L'informe es va fer fa 30 minuts, a les 11:30 UTC
Vent 4 kt del Est/Sud-Est, variant entre Nord/Nord-Est i Sud
Temperatura 22°C
Humitat 46%
Pressió 1023 hPa
Visibilitat 10 km o més
sense núvols per sota de 1500 mi sense presència de cumulonimbus.

METAR: LFRK 091130Z AUTO 12004KT 030V170 CAVOK 22/10 Q1023 NOSIG

Hora: 14:00 (12:00 UTC)


TAF: manca

Observacions i pronòstics meteorològics de més de 4000 aeroports (METAR i TAF).

Les estacions disponibles són els punts grocs i vermells al mapa.

Posi el ratolí al punt desitjat per veure el nom de l'estació.

Feu clic per veure les observacions i els pronòstics meteorològics.

Per canviar el mapa: feu clic els botons verds amb una creu de color negre per apropar; al botó verd amb un guió per allunyar la imatge; o en les fletxes verdes per a mapes adjacents.


METAR-TAF: